Time;durP1;ratioP1;P1;durP2;ratioP2;P2;SDS_P1;SDS_P2;PMS_P1;PMS_P2;Temp;Humidity;BMP_temperature;BMP_pressure;BME280_temperature;BME280_humidity;BME280_pressure;Samples;Min_cycle;Max_cycle;Signal;HPM_P1;HPM_P2
2022/04/21 00:00:42;;;;;;;;;10.25;10.25;;;;;15.35;34.38;100707.34;6309509;22;45192;-86
2022/04/21 00:03:11;;;;;;;;;7.00;7.00;;;;;15.34;34.61;100702.06;6284875;22;47988;-86
2022/04/21 00:05:37;;;;;;;;;12.00;10.00;;;;;15.27;34.29;100687.22;6313347;22;45219;-87
2022/04/21 00:08:03;;;;;;;;;10.50;10.50;;;;;15.27;34.56;100693.41;6285939;22;45176;-86
2022/04/21 00:10:30;;;;;;;;;11.75;10.00;;;;;15.20;34.66;100697.09;6315474;22;45444;-87
2022/04/21 00:12:56;;;;;;;;;8.00;8.00;;;;;15.10;34.36;100688.50;6319952;22;46399;-87
2022/04/21 00:15:25;;;;;;;;;14.00;11.00;;;;;15.06;34.70;100688.59;6316079;22;45382;-86
2022/04/21 00:17:51;;;;;;;;;11.25;10.25;;;;;15.00;34.75;100682.53;6312813;22;45299;-85
2022/04/21 00:20:17;;;;;;;;;12.75;9.50;;;;;14.95;34.83;100680.88;6310730;22;45406;-87
2022/04/21 00:25:29;;;;;;;;;13.75;13.00;;;;;14.92;35.00;100688.91;6312278;22;45332;-87
2022/04/21 00:27:55;;;;;;;;;10.50;9.00;;;;;14.89;35.21;100681.91;6284216;22;45407;-86
2022/04/21 00:30:24;;;;;;;;;12.25;10.75;;;;;14.89;35.20;100694.25;6310560;22;45359;-87
2022/04/21 00:32:50;;;;;;;;;16.25;13.00;;;;;14.85;35.64;100682.88;6285101;22;46973;-87
2022/04/21 00:35:17;;;;;;;;;13.75;13.00;;;;;14.88;35.52;100682.78;6312335;22;45156;-86
2022/04/21 00:37:51;;;;;;;;;12.00;9.75;;;;;14.88;35.24;100687.22;6309590;22;45403;-85
2022/04/21 00:40:20;;;;;;;;;13.00;11.00;;;;;14.80;35.34;100668.84;6283135;22;45421;-86
2022/04/21 00:42:49;;;;;;;;;11.50;10.50;;;;;14.85;35.58;100674.91;6282442;22;46185;-86
2022/04/21 00:45:17;;;;;;;;;15.75;11.25;;;;;14.81;35.57;100670.59;6311674;22;45198;-86
2022/04/21 00:47:49;;;;;;;;;15.50;15.50;;;;;14.73;35.80;100660.16;6283561;22;45259;-86
2022/04/21 00:50:22;;;;;;;;;18.50;15.25;;;;;14.79;35.55;100669.75;6309916;22;45486;-86
2022/04/21 00:52:49;;;;;;;;;9.00;9.00;;;;;14.72;35.55;100671.66;6312109;22;46216;-85
2022/04/21 00:55:15;;;;;;;;;12.75;12.75;;;;;14.63;35.86;100663.06;6285992;22;45267;-86
2022/04/21 00:57:42;;;;;;;;;12.50;12.25;;;;;14.58;36.06;100663.16;6310539;22;45264;-85
2022/04/21 01:00:11;;;;;;;;;13.00;12.25;;;;;14.56;36.15;100668.47;6309465;22;45384;-85
2022/04/21 01:02:46;;;;;;;;;15.00;12.25;;;;;14.51;35.95;100659.75;6307436;22;48076;-86
2022/04/21 01:05:14;;;;;;;;;16.00;14.75;;;;;14.42;36.22;100651.09;6310704;22;45354;-85
2022/04/21 01:07:41;;;;;;;;;15.00;13.00;;;;;14.37;35.83;100635.28;6311009;22;45207;-87
2022/04/21 01:10:06;;;;;;;;;13.50;12.50;;;;;14.40;36.27;100655.56;6309610;22;45561;-86
2022/04/21 01:12:33;;;;;;;;;17.50;14.75;;;;;14.37;35.95;100651.19;6307676;22;48025;-86
2022/04/21 01:14:58;;;;;;;;;14.00;12.00;;;;;14.27;36.25;100641.69;6287734;22;45840;-86
2022/04/21 01:17:34;;;;;;;;;12.00;11.75;;;;;14.24;36.21;100650.56;6285196;22;45307;-87
2022/04/21 01:20:00;;;;;;;;;14.25;14.25;;;;;14.22;36.18;100646.19;6310782;22;45389;-86
2022/04/21 01:22:28;;;;;;;;;16.00;10.75;;;;;14.18;36.76;100640.09;6309684;22;45388;-86
2022/04/21 01:24:53;;;;;;;;;14.75;11.00;;;;;14.23;36.46;100648.84;6308055;22;45551;-86
2022/04/21 01:27:24;;;;;;;;;12.00;10.00;;;;;14.20;36.37;100646.25;6282135;22;45352;-87
2022/04/21 01:29:52;;;;;;;;;12.00;11.00;;;;;14.16;36.60;100643.69;6281866;22;45433;-87
2022/04/21 01:32:18;;;;;;;;;13.75;13.25;;;;;14.15;37.16;100642.81;6309582;22;45536;-87
2022/04/21 01:34:43;;;;;;;;;12.25;10.75;;;;;14.09;37.36;100627.06;6310956;22;45406;-87
2022/04/21 01:42:36;;;;;;;;;12.25;10.00;;;;;14.23;38.29;100645.31;6309915;22;45320;-86
2022/04/21 01:45:05;;;;;;;;;14.75;13.75;;;;;14.10;38.76;100619.06;6308279;22;45317;-87
2022/04/21 01:47:31;;;;;;;;;14.00;11.25;;;;;14.20;38.72;100640.09;6308183;22;45218;-87
2022/04/21 01:49:56;;;;;;;;;15.25;12.50;;;;;14.15;38.83;100632.22;6309742;22;45248;-87
2022/04/21 01:52:22;;;;;;;;;15.25;12.50;;;;;14.14;38.62;100625.19;6307564;22;47160;-87
2022/04/21 01:54:50;;;;;;;;;14.75;11.00;;;;;14.08;39.11;100618.22;6315881;22;45109;-86
2022/04/21 01:57:22;;;;;;;;;14.75;11.75;;;;;14.12;39.50;100635.81;6314625;22;45384;-87
2022/04/21 01:59:52;;;;;;;;;11.25;11.25;;;;;14.06;39.22;100625.34;6281944;22;45537;-87
2022/04/21 02:02:21;;;;;;;;;9.50;8.50;;;;;13.99;39.38;100618.44;6281958;22;47077;-87
2022/04/21 02:04:46;;;;;;;;;11.25;10.00;;;;;13.93;39.66;100609.75;6307796;22;45420;-87
2022/04/21 02:07:15;;;;;;;;;12.25;12.25;;;;;13.93;39.97;100615.03;6308201;22;45378;-86
2022/04/21 02:09:40;;;;;;;;;15.50;13.75;;;;;13.94;40.27;100627.38;6309030;22;45271;-87
2022/04/21 02:12:11;;;;;;;;;17.00;14.00;;;;;13.85;40.53;100613.41;6283266;22;46878;-86
2022/04/21 02:14:37;;;;;;;;;15.25;13.50;;;;;13.74;40.98;100606.56;6285621;22;45200;-86
2022/04/21 02:17:05;;;;;;;;;14.50;13.75;;;;;13.79;40.86;100615.28;6281732;22;45318;-86
2022/04/21 02:19:31;;;;;;;;;19.75;16.00;;;;;13.67;40.99;100606.69;6281034;22;45471;-87
2022/04/21 02:21:56;;;;;;;;;15.50;12.25;;;;;13.68;41.34;100604.91;6281514;22;46997;-86
2022/04/21 02:24:22;;;;;;;;;18.00;14.00;;;;;13.68;41.45;100602.25;6311592;22;45363;-86
2022/04/21 02:26:47;;;;;;;;;13.50;13.50;;;;;13.70;41.51;100618.97;6311249;22;45347;-86
2022/04/21 02:29:16;;;;;;;;;14.50;14.25;;;;;13.72;42.04;100614.53;6308860;22;45444;-86
2022/04/21 02:31:41;;;;;;;;;13.00;12.25;;;;;13.62;41.76;100602.38;6310161;22;47882;-86
2022/04/21 02:34:07;;;;;;;;;15.50;12.00;;;;;13.65;41.88;100607.59;6285599;22;45220;-85
2022/04/21 02:36:32;;;;;;;;;12.25;11.00;;;;;13.56;41.97;100586.63;6309280;22;45366;-87
2022/04/21 02:38:58;;;;;;;;;16.25;14.00;;;;;13.51;42.00;100586.72;6283168;22;45291;-86
2022/04/21 02:41:23;;;;;;;;;12.00;12.00;;;;;13.63;42.04;100604.13;6311295;22;45813;-86
2022/04/21 02:43:48;;;;;;;;;14.50;11.00;;;;;13.59;41.94;100602.44;6311294;22;45205;-87
2022/04/21 02:46:14;;;;;;;;;12.00;12.00;;;;;13.57;42.26;100602.47;6308795;22;45270;-87
2022/04/21 02:48:40;;;;;;;;;11.25;11.25;;;;;13.57;42.43;100606.88;6308675;22;45436;-86
2022/04/21 02:51:08;;;;;;;;;12.75;12.75;;;;;13.44;42.60;100585.97;6283087;22;45286;-85
2022/04/21 02:59:13;;;;;;;;;12.00;11.50;;;;;13.34;42.63;100580.84;6310281;22;45330;-85
2022/04/21 03:01:38;;;;;;;;;16.75;16.75;;;;;13.31;42.98;100595.00;6310872;22;45423;-86
2022/04/21 03:04:06;;;;;;;;;15.25;13.25;;;;;13.38;42.93;100608.97;6282676;22;45330;-86
2022/04/21 03:06:34;;;;;;;;;13.50;13.00;;;;;13.22;42.66;100579.25;6285787;22;45263;-87
2022/04/21 03:08:59;;;;;;;;;17.00;15.00;;;;;13.34;43.05;100605.53;6284315;22;45217;-87
2022/04/21 03:11:25;;;;;;;;;15.25;14.75;;;;;13.15;43.08;100567.03;6312939;22;45421;-87
2022/04/21 03:13:54;;;;;;;;;13.50;12.25;;;;;13.25;43.00;100590.66;6285987;22;45369;-86
2022/04/21 03:16:21;;;;;;;;;19.00;17.75;;;;;13.20;43.12;100591.63;6308582;22;45386;-87
2022/04/21 03:18:49;;;;;;;;;18.50;17.00;;;;;13.10;43.25;100571.56;6311363;22;45259;-86
2022/04/21 03:24:19;;;;;;;;;18.75;17.50;;;;;13.07;43.06;100569.84;6311118;22;45176;-86
2022/04/21 03:26:49;;;;;;;;;20.75;16.50;;;;;12.95;43.20;100557.69;6282965;22;45441;-86
2022/04/21 03:29:16;;;;;;;;;20.00;19.50;;;;;13.00;43.38;100553.19;6281961;22;45422;-87
2022/04/21 03:31:43;;;;;;;;;23.00;20.50;;;;;13.11;43.14;100570.66;6287230;22;48229;-85
2022/04/21 03:34:14;;;;;;;;;24.50;22.25;;;;;12.95;43.46;100554.19;6281808;22;45256;-86
2022/04/21 03:37:15;;;;;;;;;;;;;;;;;;;;;
2022/04/21 03:39:45;;;;;;;;;19.25;18.00;;;;;12.88;43.38;100558.66;6309251;22;71574;-85
2022/04/21 03:42:32;;;;;;;;;25.25;22.50;;;;;12.91;44.07;100579.78;6282380;22;47034;-86
2022/04/21 03:45:00;;;;;;;;;21.25;17.50;;;;;12.83;43.63;100570.22;6311773;22;45233;-87
2022/04/21 03:47:26;;;;;;;;;23.00;22.25;;;;;12.86;44.00;100565.78;6283705;22;45385;-85
2022/04/21 03:49:59;;;;;;;;;19.00;19.00;;;;;12.83;44.47;100564.94;6285994;22;45419;-86
2022/04/21 03:52:25;;;;;;;;;23.75;22.75;;;;;12.83;44.55;100559.63;6288148;22;46918;-84
2022/04/21 03:54:52;;;;;;;;;18.25;17.25;;;;;12.90;44.92;100562.16;6314127;22;45368;-86
2022/04/21 03:57:18;;;;;;;;;18.00;16.50;;;;;12.88;44.72;100566.59;6286057;22;45290;-86
2022/04/21 03:59:43;;;;;;;;;21.75;19.25;;;;;12.75;45.17;100550.09;6288497;22;45440;-86
2022/04/21 04:02:11;;;;;;;;;19.50;18.50;;;;;12.72;45.21;100552.78;6288577;22;47570;-85
2022/04/21 04:04:38;;;;;;;;;21.25;16.50;;;;;12.79;45.37;100574.69;6288984;22;45772;-85
2022/04/21 04:12:35;;;;;;;;;16.50;16.25;;;;;12.76;46.05;100587.94;6315314;22;45165;-86
2022/04/21 04:15:07;;;;;;;;;25.00;20.00;;;;;12.72;45.69;100581.84;6282306;22;46000;-86
2022/04/21 04:17:33;;;;;;;;;22.50;19.00;;;;;12.67;46.42;100581.03;6282621;22;45325;-85
2022/04/21 04:19:59;;;;;;;;;19.25;17.50;;;;;12.56;45.90;100570.63;6282981;22;45192;-86
2022/04/21 04:22:32;;;;;;;;;21.00;17.75;;;;;12.59;45.90;100582.91;6282777;22;47157;-85
2022/04/21 04:24:58;;;;;;;;;20.50;18.50;;;;;12.52;46.18;100571.56;6310756;22;45192;-86
2022/04/21 04:27:24;;;;;;;;;19.25;18.00;;;;;12.55;46.14;100576.78;6282234;22;45345;-86
2022/04/21 04:29:50;;;;;;;;;24.50;22.00;;;;;12.40;46.05;100555.00;6313481;22;45466;-87
2022/04/21 04:32:15;;;;;;;;;25.00;20.75;;;;;12.34;46.21;100558.63;6286788;22;47242;-86
2022/04/21 04:34:44;;;;;;;;;19.50;16.25;;;;;12.44;46.16;100581.34;6310483;22;45353;-87
2022/04/21 04:37:13;;;;;;;;;21.50;20.00;;;;;12.33;46.20;100576.22;6312096;22;45283;-86
2022/04/21 04:39:52;;;;;;;;;;;;;;;;;;;;;
2022/04/21 04:42:18;;;;;;;;;12.25;10.50;;;;;12.23;44.84;100569.31;6310193;22;74920;-86
2022/04/21 04:44:46;;;;;;;;;9.00;8.75;;;;;12.24;44.31;100583.38;6308058;22;45788;-85
2022/04/21 04:47:12;;;;;;;;;11.00;11.00;;;;;12.28;43.55;100591.25;6308159;22;45319;-84
2022/04/21 04:49:38;;;;;;;;;10.00;10.00;;;;;12.15;42.96;100576.47;6312431;22;45435;-86
2022/04/21 04:52:06;;;;;;;;;9.75;9.75;;;;;12.28;42.42;100603.59;6312303;22;46024;-86
2022/04/21 04:54:32;;;;;;;;;11.25;9.75;;;;;12.14;42.55;100593.22;6284311;22;45517;-86
2022/04/21 04:56:58;;;;;;;;;13.00;9.50;;;;;12.06;42.06;100580.09;6309408;22;45333;-87
2022/04/21 04:59:24;;;;;;;;;11.00;8.50;;;;;12.15;42.01;100602.84;6282602;22;45558;-87
2022/04/21 05:01:50;;;;;;;;;10.75;9.75;;;;;12.16;42.06;100603.72;6282072;22;47041;-86
2022/04/21 05:04:17;;;;;;;;;13.25;10.25;;;;;12.07;41.93;100588.88;6281663;22;46261;-87
2022/04/21 05:06:43;;;;;;;;;11.25;9.00;;;;;12.21;41.54;100610.69;6308240;22;44617;-87
2022/04/21 05:09:11;;;;;;;;;10.25;10.25;;;;;12.17;41.64;100597.56;6308333;22;45448;-87
2022/04/21 05:11:42;;;;;;;;;12.75;9.00;;;;;12.15;41.41;100597.56;6307249;22;46926;-87
2022/04/21 05:14:12;;;;;;;;;12.00;10.00;;;;;12.23;41.53;100613.31;6284657;22;45248;-87
2022/04/21 05:16:39;;;;;;;;;11.50;10.50;;;;;12.23;41.37;100598.34;6311837;22;45407;-86
2022/04/21 05:19:19;;;;;;;;;11.75;10.25;;;;;12.28;41.43;100604.44;6281556;22;45427;-86
2022/04/21 05:21:45;;;;;;;;;10.25;8.00;;;;;12.34;41.23;100607.00;6308714;22;47869;-87
2022/04/21 05:24:14;;;;;;;;;13.50;12.00;;;;;12.34;41.47;100611.41;6282441;22;45279;-87
2022/04/21 05:26:46;;;;;;;;;10.25;9.00;;;;;12.28;41.13;100591.25;6307572;22;45397;-87
2022/04/21 05:32:00;;;;;;;;;8.50;8.50;;;;;12.37;41.02;100600.81;6309622;22;45373;-87
2022/04/21 05:34:27;;;;;;;;;11.50;10.75;;;;;12.44;41.08;100609.53;6307751;22;45235;-87
2022/04/21 05:36:56;;;;;;;;;12.50;11.50;;;;;12.52;41.02;100608.53;6315334;22;45249;-88
2022/04/21 05:39:45;;;;;;;;;15.00;11.00;;;;;12.58;40.76;100605.78;6311037;22;45338;-87
2022/04/21 05:42:20;;;;;;;;;11.00;11.00;;;;;12.53;40.50;100594.41;6282422;22;47763;-87
2022/04/21 05:44:48;;;;;;;;;12.50;10.50;;;;;12.54;40.72;100587.41;6314684;22;45332;-89
2022/04/21 05:47:17;;;;;;;;;11.25;11.00;;;;;12.57;40.77;100582.06;6318133;22;45166;-87
2022/04/21 05:49:46;;;;;;;;;11.75;11.25;;;;;12.65;40.95;100589.88;6286419;22;45339;-88
2022/04/21 05:52:13;;;;;;;;;10.00;10.00;;;;;12.59;40.73;100580.28;6284621;22;47559;-88
2022/04/21 05:54:39;;;;;;;;;12.00;11.50;;;;;12.73;40.86;100596.78;6286754;22;45241;-87
2022/04/21 06:54:03;;;;;;;;;12.75;11.25;;;;;13.07;40.97;100561.91;6011772;23;45427;-79
2022/04/21 06:56:28;;;;;;;;;12.75;9.25;;;;;13.21;40.85;100570.47;6120275;23;45494;-81
2022/04/21 06:58:55;;;;;;;;;13.00;11.25;;;;;13.26;40.48;100567.78;6272187;22;48025;-79
2022/04/21 07:01:24;;;;;;;;;17.00;14.25;;;;;13.30;40.46;100577.38;6280569;22;45328;-80
2022/04/21 07:03:52;;;;;;;;;14.50;13.00;;;;;13.22;40.74;100558.09;6305831;22;45313;-80
2022/04/21 07:06:20;;;;;;;;;11.75;11.50;;;;;13.29;40.46;100565.06;6280436;22;45425;-81
2022/04/21 07:08:47;;;;;;;;;14.50;12.50;;;;;13.34;40.28;100565.88;6280238;22;47460;-80
2022/04/21 07:11:12;;;;;;;;;12.00;10.00;;;;;13.31;40.15;100554.47;6307769;22;45319;-80
2022/04/21 07:13:38;;;;;;;;;13.00;12.75;;;;;13.33;40.18;100553.53;6281657;22;45398;-82
2022/04/21 07:16:06;;;;;;;;;12.50;11.75;;;;;13.44;40.22;100559.53;6307254;22;45334;-79
2022/04/21 07:18:32;;;;;;;;;10.50;10.50;;;;;13.54;40.06;100575.19;6281356;22;47341;-79
2022/04/21 07:21:00;;;;;;;;;10.75;10.75;;;;;13.49;39.94;100551.47;6281620;22;45777;-79
2022/04/21 07:23:25;;;;;;;;;14.00;13.50;;;;;13.55;39.76;100554.03;6307977;22;45314;-82
2022/04/21 07:26:00;;;;;;;;;11.00;11.00;;;;;13.62;39.56;100550.34;6307648;22;45411;-83
2022/04/21 07:28:45;;;;;;;;;10.50;10.50;;;;;13.70;39.75;100546.69;6281356;22;47967;-79
2022/04/21 07:31:48;;;;;;;;;;;;;;;;;;;;;
2022/04/21 07:34:14;;;;;;;;;14.00;13.50;;;;;13.88;39.75;100551.63;6308547;22;69180;-78
2022/04/21 07:36:41;;;;;;;;;13.75;13.75;;;;;13.99;39.36;100560.19;6281962;22;45252;-80
2022/04/21 07:40:41;;;;;;;;;;;;;;;;;;;;;
2022/04/21 07:46:33;;;;;;;;;13.00;13.00;;;;;14.25;38.94;100537.59;6302781;22;45402;-82
2022/04/21 07:55:25;;;;;;;;;9.50;9.50;;;;;14.51;38.37;100522.00;6181295;23;45435;-84
2022/04/21 08:01:27;;;;;;;;;16.25;12.50;;;;;14.82;38.01;100534.50;6162783;23;46324;-79
2022/04/21 08:03:53;;;;;;;;;10.25;10.00;;;;;14.86;37.91;100530.00;6204321;22;48128;-83
2022/04/21 08:06:23;;;;;;;;;16.25;15.00;;;;;14.89;37.83;100528.16;6281047;22;45243;-81
2022/04/21 08:08:56;;;;;;;;;15.50;14.25;;;;;15.06;38.14;100533.03;6309880;22;45244;-83
2022/04/21 08:11:24;;;;;;;;;16.50;16.50;;;;;15.14;37.58;100528.41;6310094;22;45407;-82
2022/04/21 08:13:51;;;;;;;;;16.75;13.25;;;;;15.20;37.30;100522.06;6309885;22;46201;-82
2022/04/21 08:16:19;;;;;;;;;15.25;13.75;;;;;15.31;37.40;100530.59;6281905;22;45184;-82
2022/04/21 08:18:50;;;;;;;;;16.00;16.00;;;;;15.44;37.19;100526.69;6281829;22;45183;-82
2022/04/21 08:21:15;;;;;;;;;14.75;12.00;;;;;15.59;36.93;100530.72;6281547;22;45666;-82
2022/04/21 08:23:41;;;;;;;;;15.25;12.00;;;;;15.69;36.64;100527.84;6309518;22;45502;-82
2022/04/21 08:34:42;;;;;;;;;15.25;13.00;;;;;15.95;36.16;100521.78;6308772;22;45339;-82
2022/04/21 08:37:13;;;;;;;;;15.00;13.25;;;;;16.03;36.64;100535.69;6299378;22;45219;-82
2022/04/21 08:39:42;;;;;;;;;14.00;14.00;;;;;16.08;36.46;100529.34;6309733;22;45230;-82
2022/04/21 08:42:13;;;;;;;;;13.50;11.75;;;;;16.20;36.68;100535.19;6281785;22;45195;-81
2022/04/21 08:44:46;;;;;;;;;13.00;12.00;;;;;16.36;36.41;100535.59;6309174;22;45378;-81
2022/04/21 08:47:14;;;;;;;;;16.25;11.50;;;;;16.46;36.28;100531.72;6281315;22;45856;-81
2022/04/21 08:49:43;;;;;;;;;14.25;13.00;;;;;16.60;36.25;100528.63;6281374;22;45363;-82
2022/04/21 08:52:11;;;;;;;;;13.00;12.00;;;;;16.71;35.70;100524.72;6281593;22;45779;-81
2022/04/21 08:54:38;;;;;;;;;11.50;10.50;;;;;16.82;35.47;100531.53;6281500;22;48104;-82
2022/04/21 08:57:05;;;;;;;;;12.25;11.75;;;;;16.85;35.42;100518.97;6309894;22;45228;-81
2022/04/21 08:59:31;;;;;;;;;17.00;13.50;;;;;17.01;35.27;100518.47;6308113;22;45192;-83
2022/04/21 09:02:02;;;;;;;;;13.75;12.75;;;;;17.18;35.25;100530.25;6307641;22;45515;-80
2022/04/21 09:04:31;;;;;;;;;15.75;14.50;;;;;17.29;34.91;100537.84;6307557;22;47049;-83
2022/04/21 09:07:13;;;;;;;;;15.50;14.00;;;;;17.38;35.12;100534.03;6309489;22;45426;-81
2022/04/21 09:09:41;;;;;;;;;15.75;12.50;;;;;17.51;34.41;100523.78;6307622;22;45452;-81
2022/04/21 09:12:18;;;;;;;;;14.25;13.25;;;;;17.58;34.21;100518.19;6307977;22;45598;-81
2022/04/21 09:14:47;;;;;;;;;16.25;15.25;;;;;17.70;34.32;100511.56;6307996;22;46057;-81
2022/04/21 09:17:18;;;;;;;;;12.00;12.00;;;;;17.79;34.08;100523.72;6309127;22;45249;-80
2022/04/21 09:19:59;;;;;;;;;12.75;12.75;;;;;17.89;33.77;100522.44;6308954;22;45186;-81
2022/04/21 09:22:33;;;;;;;;;12.25;11.25;;;;;17.89;33.63;100505.59;6307212;22;45613;-81
2022/04/21 09:25:01;;;;;;;;;14.75;14.75;;;;;17.93;33.54;100508.06;6306810;22;48226;-81
2022/04/21 09:27:44;;;;;;;;;16.00;13.75;;;;;18.12;33.79;100523.34;6308933;22;45172;-81
2022/04/21 09:30:12;;;;;;;;;15.00;14.50;;;;;18.10;33.53;100506.56;6308115;22;45282;-82
2022/04/21 09:32:51;;;;;;;;;14.25;14.00;;;;;18.24;33.11;100515.75;6309136;22;45160;-82
2022/04/21 09:35:21;;;;;;;;;13.75;12.75;;;;;18.38;33.45;100504.53;6280815;22;46811;-82
2022/04/21 09:37:48;;;;;;;;;12.50;12.50;;;;;18.47;33.22;100497.97;6281350;22;45212;-82
2022/04/21 09:40:18;;;;;;;;;19.75;15.00;;;;;18.62;33.25;100509.81;6281882;22;45125;-82
2022/04/21 09:42:53;;;;;;;;;14.25;13.00;;;;;18.62;32.71;100493.81;6307138;22;45346;-82
2022/04/21 09:46:09;;;;;;;;;12.75;12.75;;;;;18.72;32.70;100501.38;6308920;22;45381;-82
2022/04/21 09:48:53;;;;;;;;;12.50;12.25;;;;;18.86;32.70;100495.50;6287882;22;45208;-82
2022/04/21 09:51:56;;;;;;;;;14.75;13.25;;;;;18.85;32.26;100484.91;6309262;22;45278;-82
2022/04/21 09:55:10;;;;;;;;;16.00;14.00;;;;;18.88;32.47;100471.44;6310598;22;45326;-82
2022/04/21 09:58:08;;;;;;;;;14.75;13.25;;;;;19.04;32.19;100479.66;6240080;22;46929;-83
2022/04/21 10:00:51;;;;;;;;;15.00;11.00;;;;;19.12;31.58;100482.84;6264751;22;45698;-83
2022/04/21 10:03:25;;;;;;;;;13.50;13.50;;;;;19.16;31.71;100487.09;6308800;22;45392;-82
2022/04/21 10:05:53;;;;;;;;;12.00;12.00;;;;;19.19;32.23;100478.97;6308931;22;45331;-82
2022/04/21 10:08:19;;;;;;;;;16.00;12.50;;;;;19.33;31.32;100470.38;6308910;22;45435;-83
2022/04/21 10:10:46;;;;;;;;;13.00;13.00;;;;;19.35;30.88;100471.16;6281997;22;46438;-83
2022/04/21 10:13:12;;;;;;;;;12.75;12.25;;;;;19.46;30.98;100471.56;6309886;22;45199;-81
2022/04/21 10:15:40;;;;;;;;;15.25;12.25;;;;;19.61;30.76;100472.66;6308184;22;45207;-81
2022/04/21 10:18:06;;;;;;;;;15.00;13.25;;;;;19.71;30.94;100467.81;6280349;22;47180;-84
2022/04/21 10:20:32;;;;;;;;;15.75;14.75;;;;;19.86;30.64;100475.13;6306895;22;45282;-83
2022/04/21 10:23:04;;;;;;;;;12.50;10.75;;;;;19.90;30.11;100463.34;6280503;22;45312;-82
2022/04/21 10:25:38;;;;;;;;;10.50;10.50;;;;;19.91;30.12;100450.84;6280336;22;45238;-82
2022/04/21 10:28:46;;;;;;;;;12.25;12.25;;;;;20.06;29.51;100458.13;6277335;22;45277;-82
2022/04/21 10:31:32;;;;;;;;;11.00;11.00;;;;;20.03;30.14;100435.09;6249516;22;45725;-82
2022/04/21 10:34:05;;;;;;;;;13.50;11.75;;;;;20.13;28.86;100438.19;6276499;22;45437;-83
2022/04/21 10:37:09;;;;;;;;;9.00;7.00;;;;;20.20;29.33;100442.28;6250095;22;45585;-83
2022/04/21 10:40:05;;;;;;;;;13.75;13.75;;;;;20.28;28.95;100433.91;6277776;22;45527;-82
2022/04/21 10:42:55;;;;;;;;;13.25;12.50;;;;;20.43;28.97;100433.16;6249116;22;45410;-82
2022/04/21 10:45:42;;;;;;;;;;;;;;;;;;;;;
2022/04/21 10:58:37;;;;;;;;;10.75;10.50;;;;;21.05;27.25;100424.69;6178606;22;45400;-82
2022/04/21 11:01:17;;;;;;;;;11.25;9.75;;;;;21.12;27.50;100426.97;6276566;22;45388;-81
2022/04/21 11:04:04;;;;;;;;;13.75;12.00;;;;;21.24;27.39;100421.91;6276734;22;45961;-83
2022/04/21 11:06:41;;;;;;;;;11.75;10.75;;;;;21.38;27.18;100432.78;6276954;22;45354;-82
2022/04/21 11:09:34;;;;;;;;;12.75;10.25;;;;;21.54;26.65;100430.13;6250881;22;45331;-83
2022/04/21 11:11:59;;;;;;;;;10.50;10.50;;;;;21.65;26.46;100413.47;6276436;22;45544;-81
2022/04/21 11:14:29;;;;;;;;;11.25;10.25;;;;;21.83;26.16;100416.97;6255223;22;48345;-81
2022/04/21 11:16:57;;;;;;;;;11.75;9.75;;;;;21.82;26.30;100405.38;6263436;22;45342;-80
2022/04/21 11:19:29;;;;;;;;;12.50;11.50;;;;;22.01;25.79;100411.44;6280399;22;45232;-81
2022/04/21 11:22:06;;;;;;;;;9.00;5.00;;;;;22.08;25.87;100398.56;6279400;22;45455;-82
2022/04/21 11:25:01;;;;;;;;;9.75;7.25;;;;;22.21;25.09;100396.94;6278137;22;45227;-83
2022/04/21 11:27:31;;;;;;;;;11.00;10.50;;;;;22.38;25.75;100395.94;6276798;22;45305;-83
2022/04/21 11:30:12;;;;;;;;;10.25;10.25;;;;;22.54;25.53;100397.72;6279118;22;45311;-81
2022/04/21 11:32:50;;;;;;;;;8.50;8.00;;;;;22.58;25.24;100386.69;6278119;22;45394;-81
2022/04/21 11:35:20;;;;;;;;;11.00;9.25;;;;;22.63;24.94;100392.66;6276483;22;46203;-82
2022/04/21 11:37:49;;;;;;;;;10.75;10.75;;;;;22.72;24.79;100388.59;6278677;22;45202;-82
2022/04/21 11:40:24;;;;;;;;;11.75;8.75;;;;;22.80;23.93;100389.00;6281022;22;44686;-82
2022/04/21 11:42:50;;;;;;;;;10.75;10.75;;;;;22.85;24.76;100389.56;6251857;22;45418;-82
2022/04/21 11:45:26;;;;;;;;;12.50;9.50;;;;;22.89;24.33;100395.59;6250830;22;48183;-82
2022/04/21 11:47:52;;;;;;;;;9.75;9.25;;;;;22.96;24.07;100379.97;6251021;22;45702;-82
2022/04/21 11:50:25;;;;;;;;;12.00;12.00;;;;;22.99;24.24;100393.25;6251587;22;45317;-83
2022/04/21 11:52:53;;;;;;;;;10.00;9.00;;;;;23.00;24.46;100387.78;6277006;22;45396;-83
2022/04/21 11:55:23;;;;;;;;;10.75;9.00;;;;;23.14;24.53;100383.41;6250951;22;47550;-83
2022/04/21 11:57:49;;;;;;;;;12.00;12.00;;;;;23.21;23.88;100379.38;6276498;22;45251;-83
2022/04/21 12:00:16;;;;;;;;;12.00;11.75;;;;;23.23;23.73;100367.59;6251238;22;45237;-82
2022/04/21 12:08:28;;;;;;;;;12.25;11.25;;;;;23.48;23.56;100358.81;6278452;22;45288;-82
2022/04/21 12:10:53;;;;;;;;;10.25;8.50;;;;;23.65;24.47;100367.63;6251069;22;45208;-82
2022/04/21 12:13:19;;;;;;;;;10.50;10.00;;;;;23.83;24.36;100366.47;6250581;22;45526;-82
2022/04/21 12:15:50;;;;;;;;;11.00;11.00;;;;;24.05;24.03;100359.69;6276098;22;47092;-82
2022/04/21 12:18:18;;;;;;;;;7.50;7.50;;;;;24.12;24.15;100369.09;6278609;22;45176;-82
2022/04/21 12:20:54;;;;;;;;;10.75;10.75;;;;;24.18;24.46;100347.16;6278811;22;45307;-84
2022/04/21 12:23:27;;;;;;;;;11.50;11.00;;;;;24.35;23.48;100360.34;6250451;22;45204;-82
2022/04/21 12:25:57;;;;;;;;;9.50;9.50;;;;;24.49;22.76;100362.13;6280386;22;45218;-83
2022/04/21 12:28:23;;;;;;;;;9.00;8.50;;;;;24.46;23.51;100348.00;6250866;22;45372;-82
2022/04/21 12:30:48;;;;;;;;;9.33;9.33;;;;;24.56;23.20;100341.03;6279163;22;45286;-83
2022/04/21 12:33:14;;;;;;;;;11.00;9.00;;;;;24.73;23.51;100364.97;6279019;22;45492;-83
2022/04/21 12:35:45;;;;;;;;;7.25;7.25;;;;;24.75;22.68;100357.66;6250806;22;46837;-83
2022/04/21 12:40:59;;;;;;;;;10.00;9.00;;;;;25.03;23.34;100361.09;6278904;22;45287;-82
2022/04/21 12:43:32;;;;;;;;;8.50;8.00;;;;;25.17;23.02;100357.47;6250871;22;45421;-82
2022/04/21 12:45:58;;;;;;;;;9.33;9.33;;;;;25.41;23.09;100355.72;6278091;22;45430;-83
2022/04/21 12:48:28;;;;;;;;;10.33;9.67;;;;;25.42;22.76;100346.66;6278603;22;45319;-83
2022/04/21 12:50:58;;;;;;;;;10.33;9.00;;;;;25.52;23.09;100346.84;6279087;22;45236;-83
2022/04/21 12:53:36;;;;;;;;;9.67;8.33;;;;;25.73;22.79;100353.38;6250667;22;45682;-83
2022/04/21 12:56:15;;;;;;;;;12.25;10.00;;;;;25.70;21.94;100339.25;6276869;22;46969;-83
2022/04/21 12:58:44;;;;;;;;;15.50;14.75;;;;;25.67;21.74;100334.94;6278271;22;45564;-83
2022/04/21 13:01:10;;;;;;;;;13.75;11.00;;;;;25.65;22.12;100339.59;6250819;22;45294;-83
2022/04/21 13:03:40;;;;;;;;;8.67;7.00;;;;;25.55;22.67;100321.50;6250795;22;45494;-83
2022/04/21 13:06:08;;;;;;;;;10.33;10.33;;;;;25.70;22.26;100325.78;6250132;22;48038;-83
2022/04/21 13:08:36;;;;;;;;;14.00;11.25;;;;;25.73;21.72;100323.69;6279113;22;45621;-83
2022/04/21 13:11:02;;;;;;;;;9.67;9.67;;;;;25.82;22.25;100329.38;6278466;22;45210;-82
2022/04/21 13:13:37;;;;;;;;;;;;;;;;;;;;;
2022/04/21 13:16:04;;;;;;;;;7.00;7.00;;;;;26.14;22.18;100321.63;6278456;22;75430;-82
2022/04/21 13:18:31;;;;;;;;;4.67;4.67;;;;;26.45;22.18;100320.13;6252676;22;45172;-82
2022/04/21 13:23:44;;;;;;;;;9.50;8.75;;;;;26.47;21.42;100306.53;6279279;22;45417;-81
2022/04/21 13:26:09;;;;;;;;;11.50;10.00;;;;;26.60;21.97;100296.53;6278070;22;46319;-82
2022/04/21 13:28:38;;;;;;;;;9.00;7.67;;;;;26.93;21.82;100305.66;6278619;22;45402;-82
2022/04/21 13:33:47;;;;;;;;;7.00;7.00;;;;;27.47;21.73;100294.13;6278693;22;45161;-81
2022/04/21 13:36:16;;;;;;;;;15.75;14.00;;;;;27.66;21.54;100294.31;6250438;22;46812;-82
2022/04/21 13:38:44;;;;;;;;;7.33;7.33;;;;;27.61;20.55;100277.63;6250839;22;45432;-81
2022/04/21 13:41:09;;;;;;;;;7.00;7.00;;;;;27.44;20.31;100286.25;6278480;22;45319;-82
2022/04/21 13:43:38;;;;;;;;;8.00;7.00;;;;;27.55;21.13;100288.09;6250598;22;45410;-81